Time;durP1;ratioP1;P1;durP2;ratioP2;P2;SDS_P1;SDS_P2;PMS_P1;PMS_P2;Temp;Humidity;BMP_temperature;BMP_pressure;BME280_temperature;BME280_humidity;BME280_pressure;Samples;Min_cycle;Max_cycle;Signal;HPM_P1;HPM_P2
2022/08/12 00:44:27;;;;;;;4.15;1.98;;;16.50;75.50;;;;;;5071884;28;20097;-84
2022/08/12 00:46:59;;;;;;;2.17;1.98;;;16.40;75.80;;;;;;5061208;28;20031;-86
2022/08/12 00:49:27;;;;;;;3.20;2.00;;;16.40;76.00;;;;;;5063526;28;20044;-85
2022/08/12 00:52:10;;;;;;;2.05;1.90;;;16.30;76.30;;;;;;5076837;28;20529;-85
2022/08/12 00:54:43;;;;;;;4.80;2.17;;;16.30;76.60;;;;;;5074318;28;20094;-84
2022/08/12 00:57:24;;;;;;;3.30;2.10;;;16.30;76.90;;;;;;5056564;28;20071;-84
2022/08/12 00:59:59;;;;;;;3.08;2.15;;;16.20;76.90;;;;;;5074672;28;20044;-84
2022/08/12 01:02:37;;;;;;;4.97;2.20;;;16.20;77.10;;;;;;5069694;28;20091;-84
2022/08/12 01:13:27;;;;;;;3.42;2.65;;;15.90;78.00;;;;;;5066560;28;20070;-84
2022/08/12 01:15:59;;;;;;;4.68;2.05;;;15.80;78.30;;;;;;5074952;28;20103;-85
2022/08/12 01:18:28;;;;;;;4.40;2.28;;;15.80;78.50;;;;;;5073875;28;20055;-83
2022/08/12 01:21:25;;;;;;;3.13;2.60;;;15.80;78.80;;;;;;5073344;28;20048;-84
2022/08/12 01:23:50;;;;;;;3.08;2.28;;;15.80;78.90;;;;;;5055234;28;20020;-84
2022/08/12 01:26:22;;;;;;;3.55;2.42;;;15.80;78.90;;;;;;5072794;28;20531;-84
2022/08/12 01:28:53;;;;;;;3.83;2.17;;;15.80;78.90;;;;;;5054939;28;20027;-84
2022/08/12 01:31:23;;;;;;;2.80;2.50;;;15.70;79.10;;;;;;5073331;28;20055;-85
2022/08/12 01:34:02;;;;;;;3.28;2.60;;;15.70;79.30;;;;;;5072441;28;20817;-84
2022/08/12 01:36:44;;;;;;;3.35;2.30;;;15.70;79.40;;;;;;5073491;28;20386;-84
2022/08/12 01:39:12;;;;;;;3.75;2.38;;;15.70;79.60;;;;;;5073510;28;20073;-85
2022/08/12 01:41:44;;;;;;;3.63;2.15;;;15.60;79.70;;;;;;5064350;28;20067;-84
2022/08/12 01:44:12;;;;;;;2.28;2.08;;;15.60;80.10;;;;;;5060196;28;20025;-84
2022/08/12 01:46:41;;;;;;;3.78;2.20;;;15.50;80.30;;;;;;5052894;28;20036;-84
2022/08/12 01:49:25;;;;;;;3.72;2.42;;;15.50;80.40;;;;;;5037751;28;20025;-84
2022/08/12 01:52:03;;;;;;;5.47;2.28;;;15.50;80.60;;;;;;5051629;28;20061;-84
2022/08/12 01:54:57;;;;;;;4.15;2.75;;;15.40;80.80;;;;;;5058992;28;20020;-83
2022/08/12 01:57:43;;;;;;;4.00;2.08;;;15.40;81.10;;;;;;5077077;28;20070;-83
2022/08/12 02:00:12;;;;;;;2.60;2.28;;;15.30;81.30;;;;;;5081217;28;20016;-83
2022/08/12 02:02:47;;;;;;;2.40;2.10;;;15.30;81.50;;;;;;5069108;28;20428;-83
2022/08/12 02:11:24;;;;;;;3.22;2.70;;;15.20;82.20;;;;;;5080460;28;20167;-83
2022/08/12 02:14:12;;;;;;;4.25;2.38;;;15.20;82.50;;;;;;5052055;28;20029;-85
2022/08/12 02:16:40;;;;;;;3.35;2.95;;;15.20;82.70;;;;;;5059108;28;20032;-84
2022/08/12 02:19:40;;;;;;;3.13;2.78;;;15.10;82.90;;;;;;5063146;28;20078;-84
2022/08/12 02:22:30;;;;;;;2.80;2.60;;;15.10;83.10;;;;;;5063236;28;20029;-83
2022/08/12 02:25:25;;;;;;;4.75;2.53;;;15.10;83.30;;;;;;5085613;28;20031;-84
2022/08/12 02:27:54;;;;;;;4.35;2.58;;;15.10;83.70;;;;;;5070230;28;20111;-84
2022/08/12 02:30:28;;;;;;;6.20;2.70;;;15.00;83.90;;;;;;5089129;28;20073;-83
2022/08/12 02:32:55;;;;;;;3.80;2.92;;;15.00;84.10;;;;;;5089109;28;20017;-84
2022/08/12 02:35:23;;;;;;;4.30;2.75;;;15.00;84.20;;;;;;5086035;28;20024;-84
2022/08/12 02:37:52;;;;;;;3.10;2.70;;;15.00;84.40;;;;;;5067731;28;20036;-82
2022/08/12 02:40:19;;;;;;;2.65;2.45;;;15.00;84.50;;;;;;5086736;28;20017;-83
2022/08/12 02:43:23;;;;;;;3.00;2.70;;;14.90;84.80;;;;;;5064656;28;20025;-84
2022/08/12 02:45:58;;;;;;;3.70;2.72;;;14.80;85.10;;;;;;5070776;28;20056;-84
2022/08/12 02:48:49;;;;;;;3.35;1.98;;;14.80;85.20;;;;;;5059292;28;20403;-84
2022/08/12 02:51:19;;;;;;;2.50;2.30;;;14.80;85.30;;;;;;5060044;28;20087;-84
2022/08/12 02:53:45;;;;;;;3.35;2.53;;;14.80;85.50;;;;;;5061792;28;20082;-84
2022/08/12 02:56:11;;;;;;;3.97;2.47;;;14.80;85.60;;;;;;5078094;28;20158;-83
2022/08/12 02:58:38;;;;;;;3.22;2.58;;;14.70;85.60;;;;;;5077799;28;20273;-84
2022/08/12 03:01:09;;;;;;;3.78;3.13;;;14.70;85.90;;;;;;5078484;28;20012;-84
2022/08/12 03:03:36;;;;;;;2.65;2.45;;;14.70;86.10;;;;;;5060185;28;20032;-83
2022/08/12 03:06:03;;;;;;;2.95;2.60;;;14.70;86.20;;;;;;5059873;28;20025;-83
2022/08/12 03:08:34;;;;;;;3.97;3.22;;;14.60;86.30;;;;;;5060216;28;20028;-84
2022/08/12 03:11:27;;;;;;;3.10;2.80;;;14.60;86.50;;;;;;5074395;28;20017;-84
2022/08/12 04:21:22;;;;;;;2.85;2.58;;;14.30;90.20;;;;;;4974297;22;20100;-88
2022/08/12 04:23:48;;;;;;;3.88;3.10;;;14.30;90.50;;;;;;5017535;28;20068;-87
2022/08/12 04:26:14;;;;;;;4.18;3.03;;;14.30;90.20;;;;;;5035130;28;20049;-86
2022/08/12 04:28:39;;;;;;;4.15;3.55;;;14.30;90.10;;;;;;5035064;28;20021;-87
2022/08/12 04:31:25;;;;;;;6.75;3.58;;;14.40;90.00;;;;;;5035935;28;20506;-87
2022/08/12 04:34:25;;;;;;;6.00;3.28;;;14.40;90.00;;;;;;5052210;28;20081;-85
2022/08/12 04:36:52;;;;;;;4.68;3.33;;;14.40;90.00;;;;;;5038286;28;20029;-84
2022/08/12 04:39:19;;;;;;;6.25;3.38;;;14.40;90.00;;;;;;5037928;28;20041;-85
2022/08/12 04:41:45;;;;;;;5.68;3.00;;;14.40;89.80;;;;;;5037076;28;20024;-83
2022/08/12 04:44:10;;;;;;;5.72;3.50;;;14.40;89.60;;;;;;5054892;28;20021;-84
2022/08/12 04:46:36;;;;;;;4.38;3.53;;;14.40;89.70;;;;;;5038022;28;20029;-83
2022/08/12 04:49:03;;;;;;;3.65;3.28;;;14.40;90.10;;;;;;5055493;28;20036;-83
2022/08/12 04:51:29;;;;;;;3.15;2.85;;;14.40;89.90;;;;;;5037980;28;20010;-83
2022/08/12 04:53:55;;;;;;;4.22;3.05;;;14.40;89.80;;;;;;5055403;28;20037;-85
2022/08/12 04:56:21;;;;;;;2.72;2.53;;;14.50;89.90;;;;;;5038016;28;20211;-84
2022/08/12 04:58:46;;;;;;;4.07;2.97;;;14.50;89.90;;;;;;5055407;28;20053;-85
2022/08/12 05:01:12;;;;;;;5.40;3.20;;;14.50;89.90;;;;;;5038041;28;20024;-85
2022/08/12 05:03:38;;;;;;;5.57;4.28;;;14.60;89.90;;;;;;5055555;28;20022;-84
2022/08/12 05:06:05;;;;;;;7.35;4.50;;;14.60;89.90;;;;;;5037803;28;20120;-85
2022/08/12 05:08:32;;;;;;;6.43;3.50;;;14.70;89.90;;;;;;5055991;28;20025;-84
2022/08/12 05:10:57;;;;;;;6.70;3.50;;;14.70;90.00;;;;;;5037629;28;20025;-85
2022/08/12 05:13:28;;;;;;;3.45;2.95;;;14.80;90.10;;;;;;5041145;28;20052;-86
2022/08/12 05:15:53;;;;;;;4.72;3.10;;;14.80;90.10;;;;;;5036134;28;20029;-84
2022/08/12 05:18:20;;;;;;;5.00;3.65;;;14.90;90.00;;;;;;5024985;28;20021;-85
2022/08/12 05:20:47;;;;;;;5.22;3.20;;;14.90;89.60;;;;;;5018072;28;20083;-85
2022/08/12 05:23:18;;;;;;;7.90;3.28;;;15.00;89.30;;;;;;5034290;28;20434;-86
2022/08/12 05:25:46;;;;;;;6.50;3.95;;;15.10;89.10;;;;;;5039073;28;20028;-85
2022/08/12 05:28:13;;;;;;;4.88;3.05;;;15.10;88.80;;;;;;5022867;28;20037;-86
2022/08/12 05:30:41;;;;;;;4.78;3.28;;;15.20;88.80;;;;;;5022946;28;20018;-87
2022/08/12 05:33:08;;;;;;;4.50;3.35;;;15.20;88.50;;;;;;5021696;28;20391;-86
2022/08/12 05:35:38;;;;;;;4.75;2.90;;;15.30;88.30;;;;;;5021617;28;20017;-85
2022/08/12 05:40:55;;;;;;;6.20;3.30;;;15.50;87.50;;;;;;5039085;28;20155;-85
2022/08/12 05:43:21;;;;;;;5.35;3.20;;;15.60;87.00;;;;;;5036255;28;20044;-85
2022/08/12 05:45:48;;;;;;;4.35;2.75;;;15.70;86.40;;;;;;5040576;28;20153;-85
2022/08/12 05:48:14;;;;;;;7.28;3.15;;;15.80;85.90;;;;;;5059192;28;20068;-84
2022/08/12 05:50:41;;;;;;;4.40;3.15;;;15.90;85.30;;;;;;5042323;28;20032;-85
2022/08/12 05:53:07;;;;;;;10.13;3.53;;;16.00;84.50;;;;;;5042676;28;20025;-83
2022/08/12 05:55:34;;;;;;;5.97;4.00;;;16.10;84.00;;;;;;5060317;28;20041;-84
2022/08/12 05:58:04;;;;;;;6.18;3.22;;;16.30;82.50;;;;;;5042216;28;20021;-84
2022/08/12 06:00:31;;;;;;;4.57;2.67;;;16.40;81.10;;;;;;5042776;28;20022;-83
2022/08/12 06:03:01;;;;;;;5.15;2.92;;;16.50;82.00;;;;;;5059899;28;20025;-85
2022/08/12 06:05:27;;;;;;;4.75;3.20;;;16.60;81.20;;;;;;5042314;28;20080;-85
2022/08/12 06:07:56;;;;;;;3.15;2.60;;;16.80;80.80;;;;;;5028773;28;20057;-85
2022/08/12 06:10:22;;;;;;;5.10;2.97;;;16.90;80.00;;;;;;5033459;28;20132;-85
2022/08/12 06:12:49;;;;;;;7.13;2.75;;;17.00;79.00;;;;;;5040695;28;20094;-83
2022/08/12 06:15:19;;;;;;;3.58;2.75;;;17.20;78.80;;;;;;5047215;28;20041;-84
2022/08/12 06:17:45;;;;;;;3.47;2.55;;;17.80;78.80;;;;;;5041157;28;20022;-86
2022/08/12 06:20:14;;;;;;;3.22;2.53;;;20.60;73.10;;;;;;5054881;28;20037;-84
2022/08/12 06:22:40;;;;;;;2.05;1.85;;;24.00;62.30;;;;;;5039220;28;20078;-81
2022/08/12 06:25:07;;;;;;;2.72;2.25;;;26.70;55.30;;;;;;5044166;28;20098;-84
2022/08/12 06:27:33;;;;;;;1.85;1.60;;;29.00;49.80;;;;;;5041244;28;20025;-83
2022/08/12 06:30:01;;;;;;;2.65;1.90;;;30.20;46.30;;;;;;5044263;28;20100;-84
2022/08/12 06:32:27;;;;;;;2.28;1.90;;;31.20;44.00;;;;;;5044426;28;20105;-84
2022/08/12 06:34:55;;;;;;;1.60;1.50;;;31.90;42.80;;;;;;5026415;28;20089;-82
2022/08/12 06:37:22;;;;;;;1.60;1.50;;;32.30;41.70;;;;;;5044680;28;20025;-84
2022/08/12 06:39:47;;;;;;;1.73;1.63;;;32.60;41.40;;;;;;5044325;28;20368;-83
2022/08/12 06:44:57;;;;;;;4.13;1.90;;;32.80;39.90;;;;;;5041534;28;20048;-83
2022/08/12 06:47:23;;;;;;;4.68;2.10;;;32.40;39.90;;;;;;5040567;28;20068;-83
2022/08/12 06:49:49;;;;;;;3.25;2.13;;;32.10;40.20;;;;;;5041066;28;20032;-84
2022/08/12 06:52:16;;;;;;;4.63;2.08;;;31.60;40.00;;;;;;5043745;28;20041;-84
2022/08/12 06:54:44;;;;;;;6.25;2.88;;;31.20;40.70;;;;;;5041676;28;20036;-83
2022/08/12 06:57:10;;;;;;;2.78;2.28;;;30.80;40.50;;;;;;5023530;28;20025;-83
2022/08/12 06:59:39;;;;;;;4.47;2.10;;;30.20;41.50;;;;;;5023652;28;20383;-84
2022/08/12 07:02:07;;;;;;;3.30;2.00;;;29.20;42.40;;;;;;5024963;28;20044;-83
2022/08/12 07:04:37;;;;;;;6.18;2.30;;;;;;;;;;5026385;28;20053;-84
2022/08/12 07:07:04;;;;;;;5.38;3.22;;;24.90;47.10;;;;;;5041184;28;20032;-84
2022/08/12 07:09:30;;;;;;;4.63;2.58;;;23.00;51.90;;;;;;5049574;28;20060;-84
2022/08/12 07:11:56;;;;;;;5.05;2.15;;;;;;;;;;5054438;28;20053;-82
2022/08/12 07:14:22;;;;;;;3.90;2.40;;;20.80;57.30;;;;;;5053255;28;20026;-84
2022/08/12 07:16:55;;;;;;;6.82;2.92;;;20.30;59.70;;;;;;5044652;28;20069;-85
2022/08/12 07:19:22;;;;;;;3.72;2.60;;;20.00;61.20;;;;;;5023567;28;20037;-84
2022/08/12 07:21:48;;;;;;;6.63;2.42;;;19.70;62.90;;;;;;4992920;28;20065;-85
2022/08/12 07:24:24;;;;;;;3.05;2.38;;;19.50;63.70;;;;;;5013003;28;20349;-86
2022/08/12 07:26:53;;;;;;;4.22;2.17;;;19.40;64.50;;;;;;4991299;28;20030;-85
2022/08/12 07:29:21;;;;;;;4.32;2.78;;;19.40;64.90;;;;;;4999509;28;20026;-85
2022/08/12 07:31:58;;;;;;;3.92;2.17;;;19.50;64.50;;;;;;5006678;28;20046;-86
2022/08/12 07:34:25;;;;;;;6.30;2.55;;;19.50;64.90;;;;;;5005710;28;20089;-83
2022/08/12 07:36:51;;;;;;;3.35;2.03;;;19.60;64.40;;;;;;5019987;28;20057;-82
2022/08/12 07:39:17;;;;;;;3.28;2.30;;;19.60;64.90;;;;;;5020711;28;20026;-83
2022/08/12 07:41:43;;;;;;;7.85;2.60;;;19.60;64.80;;;;;;5020175;28;20042;-81
2022/08/12 07:44:11;;;;;;;4.75;2.58;;;19.60;65.10;;;;;;5019186;28;20018;-82
2022/08/12 07:46:42;;;;;;;10.10;2.50;;;19.60;65.20;;;;;;5021642;28;20034;-83
2022/08/12 07:49:13;;;;;;;3.00;2.70;;;19.70;63.60;;;;;;5018482;28;20445;-84
2022/08/12 07:51:41;;;;;;;6.82;2.85;;;19.80;64.60;;;;;;5017333;28;20023;-85
2022/08/12 07:54:08;;;;;;;2.53;2.33;;;19.90;64.40;;;;;;4988399;28;20137;-85
2022/08/12 07:56:37;;;;;;;2.92;2.20;;;20.00;63.60;;;;;;4980405;28;20092;-84
2022/08/12 07:59:03;;;;;;;5.25;2.45;;;20.10;63.90;;;;;;4966205;28;20045;-83
2022/08/12 08:01:31;;;;;;;3.55;2.10;;;20.20;63.80;;;;;;5018527;28;20030;-85
2022/08/12 08:06:41;;;;;;;4.97;2.97;;;20.50;63.20;;;;;;5020850;28;20514;-84
2022/08/12 08:09:12;;;;;;;3.45;2.00;;;20.70;61.70;;;;;;5000023;28;20057;-85
2022/08/12 08:14:27;;;;;;;2.47;1.80;;;21.20;59.70;;;;;;5017050;28;20091;-84
2022/08/12 08:16:53;;;;;;;4.88;2.83;;;21.50;59.70;;;;;;5001848;28;20117;-85
2022/08/12 08:19:22;;;;;;;7.53;2.30;;;21.50;58.50;;;;;;5001119;28;20140;-85
2022/08/12 08:22:06;;;;;;;4.82;1.85;;;21.50;58.90;;;;;;5018134;28;20040;-84
2022/08/12 08:24:32;;;;;;;6.70;2.22;;;21.50;59.20;;;;;;5016420;28;20033;-86
2022/08/12 08:27:01;;;;;;;7.35;2.55;;;21.60;59.10;;;;;;5018372;28;20456;-85
2022/08/12 08:29:34;;;;;;;5.07;2.72;;;21.60;58.70;;;;;;5021534;28;20087;-87
2022/08/12 08:32:08;;;;;;;4.03;2.15;;;21.60;58.50;;;;;;5042911;28;20488;-85
2022/08/12 08:34:35;;;;;;;5.38;2.53;;;21.60;58.80;;;;;;5040748;28;20062;-85
2022/08/12 08:37:01;;;;;;;6.97;2.35;;;21.70;59.00;;;;;;5037747;28;20341;-86
2022/08/12 08:39:27;;;;;;;4.45;2.20;;;21.80;58.50;;;;;;5038129;28;20021;-85
2022/08/12 08:44:57;;;;;;;3.67;2.10;;;21.90;58.10;;;;;;5037487;28;20056;-85
2022/08/12 08:47:23;;;;;;;8.55;2.17;;;22.00;58.10;;;;;;5018656;28;20067;-85
2022/08/12 08:49:49;;;;;;;7.18;1.92;;;22.00;57.70;;;;;;5036931;28;20021;-86
2022/08/12 08:52:15;;;;;;;4.13;2.10;;;22.10;58.00;;;;;;5036389;28;20017;-85
2022/08/12 08:54:52;;;;;;;3.97;2.22;;;22.20;57.80;;;;;;5018771;28;20021;-85
2022/08/12 08:57:27;;;;;;;3.20;2.00;;;22.40;57.60;;;;;;5018355;28;20037;-85
2022/08/12 08:59:52;;;;;;;3.00;1.77;;;22.50;56.90;;;;;;5019542;28;20029;-85
2022/08/12 09:02:18;;;;;;;6.45;2.17;;;22.60;56.90;;;;;;5022074;28;20403;-80
2022/08/12 09:04:44;;;;;;;6.80;2.50;;;22.80;56.60;;;;;;5039546;28;20085;-83
2022/08/12 09:07:11;;;;;;;4.10;1.90;;;23.00;56.50;;;;;;5039240;28;20029;-83
2022/08/12 09:09:37;;;;;;;3.13;1.70;;;23.10;54.60;;;;;;5038149;28;20026;-82
2022/08/12 09:14:47;;;;;;;2.88;1.70;;;23.30;53.50;;;;;;5038965;28;20051;-84
2022/08/12 09:17:14;;;;;;;3.72;1.98;;;23.40;53.90;;;;;;5038867;28;20093;-84
2022/08/12 09:19:40;;;;;;;4.60;2.45;;;23.50;53.00;;;;;;5037906;28;20049;-81
2022/08/12 09:22:07;;;;;;;6.35;2.35;;;23.70;52.80;;;;;;5039178;28;20036;-84
2022/08/12 09:24:34;;;;;;;6.60;2.15;;;23.90;52.90;;;;;;5021809;28;20024;-84
2022/08/12 09:27:00;;;;;;;2.30;2.03;;;24.00;53.10;;;;;;5022559;28;20030;-84
2022/08/12 09:29:28;;;;;;;9.40;2.53;;;24.10;52.70;;;;;;5023900;28;20033;-84
2022/08/12 09:31:54;;;;;;;7.55;2.10;;;24.20;51.60;;;;;;5021916;28;20028;-84
2022/08/12 09:34:20;;;;;;;4.43;2.08;;;24.30;51.80;;;;;;5039806;28;20447;-83
2022/08/12 09:36:46;;;;;;;4.93;1.90;;;24.40;51.20;;;;;;5039383;28;20095;-83
2022/08/12 09:39:12;;;;;;;4.65;1.95;;;24.40;50.60;;;;;;5021109;28;20034;-83
2022/08/12 09:41:42;;;;;;;8.13;1.63;;;24.20;50.30;;;;;;5039192;28;20022;-84
2022/08/12 09:46:53;;;;;;;2.25;1.80;;;23.80;51.00;;;;;;5037782;28;20450;-85
2022/08/12 09:49:20;;;;;;;9.57;1.90;;;;;;;;;;5038863;28;20036;-84
2022/08/12 09:51:47;;;;;;;4.53;1.80;;;23.80;49.40;;;;;;5045050;28;20029;-81
2022/08/12 09:54:15;;;;;;;5.78;2.10;;;23.60;50.50;;;;;;5051399;28;20035;-79
2022/08/12 09:56:42;;;;;;;7.30;2.20;;;23.50;50.70;;;;;;5044543;28;20021;-83
2022/08/12 09:59:09;;;;;;;2.63;2.00;;;23.50;50.70;;;;;;5042858;28;20092;-85
2022/08/12 10:01:39;;;;;;;2.85;1.80;;;23.40;51.20;;;;;;5034463;28;20030;-82
2022/08/12 10:04:09;;;;;;;1.98;1.67;;;23.40;51.60;;;;;;5033960;28;20034;-84
2022/08/12 10:06:38;;;;;;;2.60;2.05;;;23.40;51.80;;;;;;5050186;28;20026;-80
2022/08/12 10:09:09;;;;;;;2.05;1.45;;;23.40;51.00;;;;;;5036973;28;20017;-84
2022/08/12 10:14:20;;;;;;;3.22;1.95;;;23.70;50.50;;;;;;5058160;28;20044;-79
2022/08/12 10:16:48;;;;;;;2.58;1.70;;;24.00;50.40;;;;;;5040828;28;20029;-79
2022/08/12 10:19:15;;;;;;;5.03;1.80;;;24.20;50.60;;;;;;5058457;28;20013;-78
2022/08/12 10:21:41;;;;;;;4.57;1.42;;;24.30;50.00;;;;;;5058435;28;20021;-78
2022/08/12 10:24:09;;;;;;;3.03;1.80;;;24.60;49.50;;;;;;5041467;28;20045;-82
2022/08/12 10:29:35;;;;;;;1.95;1.77;;;24.70;49.10;;;;;;5059397;28;20092;-83
2022/08/12 10:32:22;;;;;;;3.08;1.40;;;24.60;48.80;;;;;;5039898;28;20039;-84
2022/08/12 10:34:52;;;;;;;2.28;1.67;;;24.90;48.70;;;;;;5057726;28;20021;-84
2022/08/12 10:37:21;;;;;;;2.70;1.73;;;25.20;48.40;;;;;;5025763;28;20094;-86
2022/08/12 10:39:54;;;;;;;4.25;1.92;;;25.30;47.30;;;;;;5021969;28;20037;-86
2022/08/12 10:49:11;;;;;;;6.63;1.67;;;25.50;47.20;;;;;;5006961;28;20049;-84
2022/08/12 10:51:41;;;;;;;2.08;1.58;;;25.30;46.90;;;;;;5034679;28;20167;-87
2022/08/12 10:54:15;;;;;;;3.88;2.10;;;25.30;47.70;;;;;;5033431;28;20089;-86
2022/08/12 10:56:54;;;;;;;7.70;2.03;;;25.30;46.80;;;;;;5039287;28;20033;-86
2022/08/12 10:59:20;;;;;;;4.45;1.88;;;25.20;47.30;;;;;;5032977;28;20021;-86
2022/08/12 11:01:50;;;;;;;3.08;1.83;;;25.10;47.30;;;;;;5052015;28;20025;-86
2022/08/12 11:04:24;;;;;;;8.98;1.83;;;25.20;47.80;;;;;;5051817;28;20083;-87
2022/08/12 11:06:52;;;;;;;1.50;1.40;;;25.60;46.90;;;;;;5031196;28;20025;-85
2022/08/12 11:09:31;;;;;;;4.63;1.33;;;25.70;46.50;;;;;;5017757;28;20041;-86
2022/08/12 11:12:05;;;;;;;2.90;1.63;;;25.80;45.80;;;;;;5043816;28;20094;-85
2022/08/12 11:14:36;;;;;;;3.85;1.40;;;25.90;45.80;;;;;;5043823;28;20029;-84
2022/08/12 11:17:07;;;;;;;3.40;1.48;;;25.90;45.70;;;;;;5041090;28;20438;-86
2022/08/12 11:19:38;;;;;;;3.28;1.65;;;25.90;45.90;;;;;;5026443;28;20060;-86
2022/08/12 11:22:07;;;;;;;1.77;1.63;;;25.90;46.00;;;;;;5034198;28;20029;-85
2022/08/12 11:24:33;;;;;;;1.42;1.33;;;25.90;45.90;;;;;;5024023;28;20033;-85
2022/08/12 11:27:02;;;;;;;5.85;1.65;;;25.60;46.40;;;;;;5042305;28;20085;-85
2022/08/12 11:29:29;;;;;;;1.70;1.40;;;25.40;46.70;;;;;;5041219;28;20064;-86
2022/08/12 11:31:55;;;;;;;1.50;1.40;;;25.70;46.60;;;;;;5037394;28;20017;-85
2022/08/12 11:34:21;;;;;;;2.75;1.67;;;26.40;45.40;;;;;;5058670;28;20034;-86
2022/08/12 11:37:09;;;;;;;2.15;1.30;;;26.60;44.10;;;;;;5040784;28;20089;-87
2022/08/12 11:39:35;;;;;;;2.72;1.30;;;26.50;43.90;;;;;;5040268;28;20013;-87
2022/08/12 11:42:01;;;;;;;2.20;1.33;;;26.50;43.30;;;;;;5033322;28;20040;-85
2022/08/12 11:44:28;;;;;;;2.17;1.20;;;26.30;44.20;;;;;;5026563;28;20052;-86
2022/08/12 11:46:53;;;;;;;2.38;1.40;;;26.40;42.80;;;;;;5027078;28;20033;-85
2022/08/12 11:49:24;;;;;;;3.35;1.10;;;26.20;42.80;;;;;;5026243;28;20033;-85
2022/08/12 11:51:50;;;;;;;1.70;1.43;;;26.40;43.20;;;;;;5025135;28;20033;-85
2022/08/12 11:54:16;;;;;;;3.13;1.02;;;26.60;42.80;;;;;;5042580;28;20282;-84
2022/08/12 11:56:42;;;;;;;1.48;1.10;;;26.70;42.50;;;;;;5024751;28;20117;-84
2022/08/12 11:59:08;;;;;;;3.42;1.30;;;26.80;42.10;;;;;;5025591;28;20036;-85
2022/08/12 12:01:34;;;;;;;5.72;1.20;;;26.70;41.50;;;;;;5025705;28;20021;-85
2022/08/12 12:03:59;;;;;;;1.52;1.40;;;26.30;42.50;;;;;;5026160;28;20017;-84
2022/08/12 12:06:26;;;;;;;2.55;1.30;;;26.30;42.70;;;;;;5042853;28;20407;-85
2022/08/12 12:08:52;;;;;;;1.27;1.08;;;26.30;42.40;;;;;;5024507;28;20093;-85
2022/08/12 12:11:18;;;;;;;1.35;1.13;;;26.30;43.40;;;;;;5043305;28;20499;-86
2022/08/12 12:13:45;;;;;;;3.08;1.20;;;26.40;43.20;;;;;;5025601;28;20053;-86
2022/08/12 12:16:10;;;;;;;1.60;1.30;;;26.60;42.30;;;;;;5026038;28;20033;-85
2022/08/12 12:18:36;;;;;;;1.58;1.02;;;26.70;42.80;;;;;;5025332;28;20081;-85
2022/08/12 12:21:04;;;;;;;4.65;1.27;;;27.10;42.90;;;;;;5017816;28;20037;-86
2022/08/12 12:23:30;;;;;;;6.22;1.38;;;27.30;41.80;;;;;;5021413;28;20031;-85
2022/08/12 12:25:57;;;;;;;2.10;1.13;;;27.00;41.90;;;;;;5043791;28;20514;-84
2022/08/12 12:28:23;;;;;;;1.13;1.10;;;26.20;43.00;;;;;;5028045;28;20028;-85
2022/08/12 12:30:49;;;;;;;3.75;1.10;;;25.60;43.80;;;;;;5027749;28;20454;-85
2022/08/12 12:33:15;;;;;;;1.50;1.10;;;25.60;44.00;;;;;;5028085;28;20037;-85
2022/08/12 12:35:41;;;;;;;2.80;1.13;;;25.80;43.50;;;;;;5046463;28;20492;-86
2022/08/12 12:38:09;;;;;;;2.97;1.33;;;26.00;43.30;;;;;;5045250;28;20036;-86
2022/08/12 12:40:36;;;;;;;1.27;1.00;;;26.10;43.20;;;;;;5046581;28;20514;-86
2022/08/12 12:43:03;;;;;;;0.80;0.80;;;26.30;42.90;;;;;;5029364;28;20033;-85
2022/08/12 12:45:31;;;;;;;1.20;1.10;;;26.50;42.10;;;;;;5047114;28;20109;-86
2022/08/12 12:48:03;;;;;;;2.17;0.90;;;26.70;42.40;;;;;;5028216;28;20029;-86
2022/08/12 12:50:30;;;;;;;;;;;26.90;41.90;;;;;;5030732;28;20033;-87
2022/08/12 12:52:55;;;;;;;1.98;1.20;;;27.10;42.40;;;;;;5027722;28;19909;-86
2022/08/12 12:55:22;;;;;;;2.60;1.20;;;27.20;41.90;;;;;;5027503;28;20036;-85
2022/08/12 12:57:49;;;;;;;1.90;1.15;;;27.40;41.10;;;;;;5026113;28;20036;-86
2022/08/12 13:00:17;;;;;;;2.05;0.90;;;27.50;40.60;;;;;;5026477;28;20044;-87
2022/08/12 13:02:51;;;;;;;3.05;1.50;;;27.40;41.00;;;;;;5044454;28;20021;-86
2022/08/12 13:05:21;;;;;;;2.92;1.17;;;27.40;41.00;;;;;;5044443;28;20083;-85
2022/08/12 13:08:02;;;;;;;2.75;1.10;;;27.40;41.00;;;;;;5041554;28;20036;-87
2022/08/12 13:10:30;;;;;;;1.52;1.00;;;27.50;41.20;;;;;;5026095;28;20025;-86
2022/08/12 13:12:56;;;;;;;3.58;0.82;;;27.50;40.20;;;;;;5026207;28;20180;-87
2022/08/12 13:15:22;;;;;;;0.80;0.75;;;27.50;40.70;;;;;;5024396;28;20029;-86
2022/08/12 13:17:50;;;;;;;1.10;1.00;;;27.60;40.40;;;;;;5042298;28;20033;-86
2022/08/12 13:20:17;;;;;;;2.30;1.00;;;27.70;39.80;;;;;;5043813;28;20040;-87
2022/08/12 13:22:47;;;;;;;1.98;1.00;;;28.00;40.20;;;;;;5044272;28;20026;-84
2022/08/12 13:25:15;;;;;;;1.52;1.00;;;28.10;39.70;;;;;;5025931;28;20021;-86
2022/08/12 13:27:48;;;;;;;2.58;1.00;;;27.90;39.70;;;;;;5026225;28;20646;-85
2022/08/12 13:30:19;;;;;;;1.10;0.70;;;27.90;40.40;;;;;;5028001;28;20010;-87
2022/08/12 13:32:58;;;;;;;0.80;0.80;;;28.00;40.60;;;;;;5035803;28;20474;-86
2022/08/12 13:35:26;;;;;;;2.47;0.90;;;28.10;39.70;;;;;;5031064;28;20038;-85
2022/08/12 13:37:54;;;;;;;1.17;0.73;;;28.00;40.30;;;;;;5027643;28;20025;-85
2022/08/12 13:40:21;;;;;;;0.88;0.88;;;27.40;39.80;;;;;;5050878;28;20462;-82
2022/08/12 13:42:47;;;;;;;1.05;0.95;;;26.60;41.30;;;;;;5053024;28;20061;-89
2022/08/12 13:45:16;;;;;;;4.65;0.90;;;26.00;42.60;;;;;;5036148;28;20085;-86
2022/08/12 13:48:03;;;;;;;1.73;0.60;;;25.90;43.20;;;;;;5032414;28;20029;-85
2022/08/12 13:50:32;;;;;;;1.15;1.05;;;26.40;42.40;;;;;;5032334;28;20028;-88
2022/08/12 13:52:59;;;;;;;0.85;0.77;;;26.70;41.50;;;;;;5031808;28;20018;-86
2022/08/12 13:55:26;;;;;;;1.20;0.70;;;26.90;40.70;;;;;;5020970;28;20030;-85
2022/08/12 13:57:53;;;;;;;1.25;0.60;;;26.90;40.70;;;;;;5026449;28;20029;-87
2022/08/12 14:00:21;;;;;;;0.80;0.80;;;26.70;41.00;;;;;;5027574;28;20110;-85
2022/08/12 14:02:47;;;;;;;1.75;1.05;;;26.20;40.80;;;;;;5045865;28;20032;-85
2022/08/12 14:05:14;;;;;;;1.33;0.70;;;25.80;41.40;;;;;;5047017;28;20032;-87
2022/08/12 14:07:55;;;;;;;7.93;1.10;;;25.40;42.00;;;;;;5028104;28;20022;-86
2022/08/12 14:10:37;;;;;;;4.70;0.95;;;25.70;42.00;;;;;;5049590;28;20024;-86
2022/08/12 14:13:08;;;;;;;1.13;1.00;;;26.10;42.30;;;;;;5034022;28;20385;-87
2022/08/12 14:15:39;;;;;;;3.05;0.80;;;26.80;41.50;;;;;;5033367;28;20029;-87
2022/08/12 14:18:33;;;;;;;4.18;0.82;;;27.20;40.30;;;;;;5033176;28;20028;-85
2022/08/12 14:21:08;;;;;;;0.98;0.60;;;27.30;39.70;;;;;;5043154;28;20045;-87
2022/08/12 14:23:38;;;;;;;2.25;0.80;;;27.10;39.30;;;;;;5058423;28;20028;-86
2022/08/12 14:26:16;;;;;;;0.45;0.45;;;26.90;39.40;;;;;;5059110;28;20072;-86
2022/08/12 14:28:42;;;;;;;0.90;0.90;;;27.00;39.90;;;;;;5059342;28;20075;-86
2022/08/12 14:31:11;;;;;;;0.75;0.70;;;27.30;38.50;;;;;;5059245;28;20073;-85
2022/08/12 14:33:47;;;;;;;0.70;0.70;;;27.20;38.60;;;;;;5059097;28;20010;-86
2022/08/12 14:36:14;;;;;;;0.70;0.70;;;27.10;39.50;;;;;;5059404;28;20132;-85
2022/08/12 14:38:43;;;;;;;2.30;0.73;;;27.10;40.10;;;;;;5059399;28;20025;-88
2022/08/12 14:41:13;;;;;;;1.45;0.70;;;27.10;40.30;;;;;;5056479;28;20026;-85
2022/08/12 14:43:41;;;;;;;0.60;0.60;;;27.30;39.70;;;;;;5043031;28;20037;-85
2022/08/12 14:46:13;;;;;;;3.10;0.80;;;27.20;39.60;;;;;;5039667;28;20033;-87
2022/08/12 14:48:40;;;;;;;0.80;0.63;;;27.20;39.60;;;;;;5024363;28;20021;-86
2022/08/12 14:51:06;;;;;;;0.55;0.50;;;27.10;38.90;;;;;;5036314;28;20077;-86
2022/08/12 14:53:32;;;;;;;0.60;0.60;;;27.00;39.30;;;;;;5044325;28;20088;-83
2022/08/12 14:55:59;;;;;;;0.52;0.50;;;27.20;39.00;;;;;;5043172;28;20071;-88
2022/08/12 14:58:25;;;;;;;0.80;0.70;;;27.30;38.00;;;;;;5027339;28;20022;-87
2022/08/12 15:03:36;;;;;;;0.88;0.88;;;27.50;39.20;;;;;;5045604;28;20037;-86
2022/08/12 15:06:09;;;;;;;0.95;0.80;;;27.50;38.90;;;;;;5026629;28;20034;-86
2022/08/12 15:08:40;;;;;;;0.40;0.40;;;27.40;38.80;;;;;;5046249;28;20025;-84
2022/08/12 15:11:16;;;;;;;0.77;0.75;;;27.60;39.80;;;;;;5027163;28;20047;-86
2022/08/12 15:13:44;;;;;;;1.95;0.57;;;27.70;38.80;;;;;;5030479;28;20030;-84
2022/08/12 15:16:11;;;;;;;0.60;0.60;;;27.60;39.00;;;;;;5036538;28;20141;-85
2022/08/12 15:18:37;;;;;;;2.30;0.80;;;27.60;39.00;;;;;;5037751;28;20076;-85
2022/08/12 15:21:05;;;;;;;0.65;0.65;;;27.20;39.20;;;;;;5042025;28;20029;-84
2022/08/12 15:23:33;;;;;;;1.77;0.50;;;26.70;39.80;;;;;;5056140;28;20032;-83
2022/08/12 15:26:10;;;;;;;1.85;0.50;;;26.60;40.20;;;;;;5039738;28;20006;-86
2022/08/12 15:28:36;;;;;;;0.60;0.60;;;26.50;40.50;;;;;;5039690;28;20089;-85
2022/08/12 15:31:05;;;;;;;0.77;0.77;;;26.50;41.00;;;;;;5056307;28;20029;-85
2022/08/12 15:33:31;;;;;;;1.42;0.77;;;26.70;41.10;;;;;;5051202;28;20110;-86
2022/08/12 15:35:57;;;;;;;0.82;0.82;;;26.80;41.20;;;;;;5040630;28;20477;-85
2022/08/12 15:38:30;;;;;;;3.30;1.17;;;26.90;40.80;;;;;;5041044;28;20085;-86
2022/08/12 15:40:58;;;;;;;1.52;0.80;;;26.80;40.50;;;;;;5042494;28;20036;-85